createdAt,value
2019-04-25T00:00:05.230Z,99.99
2019-04-25T00:01:05.200Z,99.99
2019-04-25T00:02:06.240Z,99.99
2019-04-25T00:03:05.189Z,99.99
2019-04-25T00:04:05.163Z,99.99
2019-04-25T00:05:05.125Z,99.99
2019-04-25T00:06:05.091Z,99.99
2019-04-25T00:07:05.083Z,99.99
2019-04-25T00:08:05.046Z,99.99
2019-04-25T00:09:05.085Z,99.99
2019-04-25T00:10:05.014Z,99.99
2019-04-25T00:11:05.005Z,99.99
2019-04-25T00:12:05.091Z,99.99
2019-04-25T00:13:04.942Z,99.99
2019-04-25T00:14:06.042Z,99.99
2019-04-25T00:15:04.887Z,99.99
2019-04-25T00:16:04.928Z,99.99
2019-04-25T00:17:04.838Z,99.99
2019-04-25T00:18:04.939Z,99.99
2019-04-25T00:19:04.828Z,99.99
2019-04-25T00:20:04.846Z,99.99
2019-04-25T00:21:04.741Z,99.99
2019-04-25T00:22:04.864Z,99.99
2019-04-25T00:23:04.717Z,99.99
2019-04-25T00:24:04.750Z,99.99
2019-04-25T00:25:15.041Z,99.99
2019-04-25T00:26:04.639Z,99.99
2019-04-25T00:27:04.688Z,99.99
2019-04-25T00:28:04.584Z,99.99
2019-04-25T00:29:04.694Z,99.99
2019-04-25T00:30:04.557Z,99.99
2019-04-25T00:31:04.619Z,99.99
2019-04-25T00:32:04.485Z,99.99
2019-04-25T00:33:04.589Z,99.99
2019-04-25T00:34:04.462Z,99.99
2019-04-25T00:35:04.541Z,99.99
2019-04-25T00:36:04.402Z,99.99
2019-04-25T00:37:04.437Z,99.99
2019-04-25T00:38:04.377Z,99.99
2019-04-25T00:39:04.462Z,99.99
2019-04-25T00:40:04.328Z,99.99
2019-04-25T00:41:04.364Z,99.99
2019-04-25T00:42:04.282Z,99.99
2019-04-25T00:43:04.387Z,99.99
2019-04-25T00:44:04.226Z,99.99
2019-04-25T00:45:04.298Z,99.99
2019-04-25T00:46:04.186Z,99.99
2019-04-25T00:47:04.207Z,99.99
2019-04-25T00:48:04.415Z,99.99
2019-04-25T00:49:04.228Z,99.99
2019-04-25T00:50:04.081Z,99.99
2019-04-25T00:51:04.136Z,99.99
2019-04-25T00:52:04.027Z,99.99
2019-04-25T00:53:04.161Z,99.99
2019-04-25T00:54:03.996Z,99.99
2019-04-25T00:55:04.073Z,99.99
2019-04-25T00:56:03.936Z,99.99
2019-04-25T00:57:03.986Z,99.99
2019-04-25T00:58:03.907Z,99.99
2019-04-25T00:59:03.984Z,99.99
2019-04-25T01:00:03.843Z,99.99
2019-04-25T01:01:03.895Z,99.99
2019-04-25T01:02:03.810Z,99.99
2019-04-25T01:03:03.957Z,99.99
2019-04-25T01:04:03.775Z,99.99
2019-04-25T01:05:03.816Z,99.99
2019-04-25T01:06:03.887Z,99.99
2019-04-25T01:07:03.856Z,99.99
2019-04-25T01:08:03.664Z,99.99
2019-04-25T01:09:03.793Z,99.99
2019-04-25T01:10:03.647Z,99.99
2019-04-25T01:11:03.666Z,99.99
2019-04-25T01:12:04.151Z,99.99
2019-04-25T01:13:04.729Z,99.99
2019-04-25T01:14:03.537Z,99.99
2019-04-25T01:15:03.628Z,99.99
2019-04-25T01:16:04.109Z,99.99
2019-04-25T01:17:03.622Z,99.99
2019-04-25T01:18:03.428Z,99.99
2019-04-25T01:19:03.591Z,99.99
2019-04-25T01:20:04.153Z,99.99
2019-04-25T01:21:04.442Z,99.99
2019-04-25T01:22:03.837Z,99.99
2019-04-25T01:23:03.768Z,99.99
2019-04-25T01:24:04.306Z,99.99
2019-04-25T01:25:03.853Z,99.99
2019-04-25T01:26:03.374Z,99.99
2019-04-25T01:27:05.257Z,99.99
2019-04-25T01:28:03.236Z,99.99
2019-04-25T01:29:03.691Z,99.99
2019-04-25T01:30:03.994Z,99.99
2019-04-25T01:31:03.853Z,99.99
2019-04-25T01:32:03.302Z,99.99
2019-04-25T01:33:03.483Z,99.99
2019-04-25T01:34:04.335Z,99.99
2019-04-25T01:35:04.032Z,99.99
2019-04-25T01:36:03.455Z,99.99
2019-04-25T01:37:04.170Z,99.99
2019-04-25T01:38:03.660Z,99.99
2019-04-25T01:39:04.321Z,99.99
2019-04-25T01:40:04.133Z,99.99
2019-04-25T01:41:03.425Z,99.99
2019-04-25T01:42:03.586Z,99.99
2019-04-25T01:43:03.734Z,99.99
2019-04-25T01:44:04.430Z,99.99
2019-04-25T01:45:04.036Z,99.99
2019-04-25T01:46:03.365Z,99.99
2019-04-25T01:47:04.195Z,99.99
2019-04-25T01:48:03.511Z,99.99
2019-04-25T01:49:04.244Z,99.99
2019-04-25T01:50:03.968Z,99.99
2019-04-25T01:51:04.102Z,99.99
2019-04-25T01:52:03.531Z,99.99
2019-04-25T01:53:03.388Z,99.99
2019-04-25T01:54:04.090Z,99.99
2019-04-25T01:55:03.504Z,99.99
2019-04-25T01:56:05.872Z,99.99
2019-04-25T01:57:04.383Z,99.99
2019-04-25T01:58:03.878Z,99.99
2019-04-25T01:59:03.882Z,99.99
2019-04-25T02:00:03.945Z,99.99
2019-04-25T02:01:03.183Z,99.99
2019-04-25T02:02:03.812Z,99.99
2019-04-25T02:03:04.529Z,99.99
2019-04-25T02:04:03.529Z,99.99
2019-04-25T02:05:05.108Z,99.99
2019-04-25T02:06:04.117Z,99.99
2019-04-25T02:07:03.597Z,99.99
2019-04-25T02:08:02.231Z,99.99
2019-04-25T02:09:03.849Z,99.99
2019-04-25T02:10:03.642Z,99.99
2019-04-25T02:11:03.182Z,99.99
2019-04-25T02:12:03.366Z,99.99
2019-04-25T02:13:03.894Z,99.99
2019-04-25T02:14:03.940Z,99.99
2019-04-25T02:15:04.000Z,99.99
2019-04-25T02:16:02.077Z,99.99
2019-04-25T02:17:02.877Z,99.99
2019-04-25T02:18:03.672Z,99.99
2019-04-25T02:19:04.055Z,99.99
2019-04-25T02:20:02.092Z,99.99
2019-04-25T02:21:04.365Z,99.99
2019-04-25T02:22:03.550Z,99.99
2019-04-25T02:23:02.101Z,99.99
2019-04-25T02:24:03.881Z,99.99
2019-04-25T02:25:04.440Z,99.99
2019-04-25T02:26:13.092Z,99.99
2019-04-25T02:27:03.741Z,99.99
2019-04-25T02:28:03.128Z,99.99
2019-04-25T02:29:03.092Z,99.99
2019-04-25T02:30:03.531Z,99.99
2019-04-25T02:31:03.803Z,99.99
2019-04-25T02:32:07.643Z,99.99
2019-04-25T02:33:06.146Z,99.99
2019-04-25T02:34:03.514Z,99.99
2019-04-25T02:35:07.891Z,99.99
2019-04-25T02:36:04.043Z,99.99
2019-04-25T02:37:04.320Z,99.99
2019-04-25T02:38:04.908Z,99.99
2019-04-25T02:39:04.318Z,99.99
2019-04-25T02:40:09.250Z,99.99
2019-04-25T02:41:03.200Z,99.99
2019-04-25T02:42:04.199Z,99.99
2019-04-25T02:43:03.157Z,99.99
2019-04-25T02:44:06.326Z,99.99
2019-04-25T02:45:04.152Z,99.99
2019-04-25T02:46:02.288Z,99.99
2019-04-25T02:47:03.306Z,99.99
2019-04-25T02:48:01.534Z,99.99
2019-04-25T02:49:03.064Z,99.99
2019-04-25T02:50:05.049Z,99.99
2019-04-25T02:51:01.286Z,99.99
2019-04-25T02:52:02.778Z,99.99
2019-04-25T02:53:01.337Z,99.99
2019-04-25T02:54:02.746Z,99.99
2019-04-25T02:55:02.197Z,99.99
2019-04-25T02:56:01.792Z,99.99
2019-04-25T02:57:02.038Z,99.99
2019-04-25T02:58:02.515Z,99.99
2019-04-25T02:59:01.042Z,99.99
2019-04-25T03:00:02.702Z,99.99
2019-04-25T03:01:12.505Z,99.99
2019-04-25T03:02:01.089Z,99.99
2019-04-25T03:03:01.177Z,99.99
2019-04-25T03:04:01.096Z,99.99
2019-04-25T03:05:01.339Z,99.99
2019-04-25T03:06:01.542Z,99.99
2019-04-25T03:07:02.666Z,99.99
2019-04-25T03:08:01.729Z,99.99
2019-04-25T03:09:01.952Z,99.99
2019-04-25T03:10:01.985Z,99.99
2019-04-25T03:11:01.434Z,99.99
2019-04-25T03:12:01.746Z,99.99
2019-04-25T03:13:01.888Z,99.99
2019-04-25T03:14:02.067Z,99.99
2019-04-25T03:15:01.875Z,99.99
2019-04-25T03:16:02.365Z,99.99
2019-04-25T03:17:01.929Z,99.99
2019-04-25T03:18:00.665Z,99.99
2019-04-25T03:19:00.615Z,99.99
2019-04-25T03:20:01.642Z,99.99
2019-04-25T03:21:01.243Z,99.99
2019-04-25T03:22:01.531Z,99.99
2019-04-25T03:23:01.212Z,99.99
2019-04-25T03:24:01.457Z,99.99
2019-04-25T03:25:02.219Z,99.99
2019-04-25T03:26:00.667Z,99.99
2019-04-25T03:27:00.854Z,99.99
2019-04-25T03:28:01.192Z,99.99
2019-04-25T03:29:01.228Z,99.99
2019-04-25T03:30:01.788Z,99.99
2019-04-25T03:31:02.152Z,99.99
2019-04-25T03:32:00.922Z,99.99
2019-04-25T03:33:02.199Z,99.99
2019-04-25T03:34:02.195Z,99.99
2019-04-25T03:35:00.504Z,99.99
2019-04-25T03:36:00.723Z,99.99
2019-04-25T03:37:00.935Z,99.99
2019-04-25T03:38:00.489Z,99.99
2019-04-25T03:39:00.851Z,99.99
2019-04-25T03:40:00.107Z,99.99
2019-04-25T03:41:00.185Z,99.99
2019-04-25T03:42:00.132Z,99.99
2019-04-25T03:43:00.499Z,99.99
2019-04-25T03:44:00.040Z,99.99
2019-04-25T03:45:00.611Z,99.99
2019-04-25T03:46:00.053Z,99.99
2019-04-25T03:46:59.897Z,99.99
2019-04-25T03:47:59.977Z,99.99
2019-04-25T03:48:59.830Z,99.99
2019-04-25T03:49:59.877Z,99.99
2019-04-25T03:50:59.798Z,99.99
2019-04-25T03:51:59.912Z,99.99
2019-04-25T03:52:59.760Z,99.99
2019-04-25T03:53:59.823Z,99.99
2019-04-25T03:54:59.702Z,99.99
2019-04-25T03:55:59.817Z,99.99
2019-04-25T03:56:59.653Z,99.99
2019-04-25T03:57:59.724Z,99.99
2019-04-25T03:58:59.610Z,99.99
2019-04-25T03:59:59.787Z,99.99
2019-04-25T04:00:59.568Z,99.99
2019-04-25T04:02:01.197Z,99.99
2019-04-25T04:02:59.503Z,99.99
2019-04-25T04:03:59.609Z,99.99
2019-04-25T04:04:59.460Z,99.99
2019-04-25T04:05:59.533Z,99.99
2019-04-25T04:06:59.429Z,99.99
2019-04-25T04:08:59.344Z,99.99
2019-04-25T04:09:59.543Z,99.99
2019-04-25T04:10:59.305Z,99.99
2019-04-25T04:11:59.364Z,99.99
2019-04-25T04:12:59.247Z,99.99
2019-04-25T04:13:59.264Z,99.99
2019-04-25T04:14:59.206Z,99.99
2019-04-25T04:15:59.289Z,99.99
2019-04-25T04:16:59.165Z,99.99
2019-04-25T04:17:59.199Z,99.99
2019-04-25T04:18:59.110Z,99.99
2019-04-25T04:19:59.207Z,99.99
2019-04-25T04:20:59.071Z,99.99
2019-04-25T04:21:59.131Z,99.99
2019-04-25T04:22:59.039Z,99.99
2019-04-25T04:23:59.043Z,99.99
2019-04-25T04:24:58.953Z,99.99
2019-04-25T04:25:59.059Z,99.99
2019-04-25T04:27:03.647Z,99.99
2019-04-25T04:27:58.970Z,99.99
2019-04-25T04:28:58.852Z,99.99
2019-04-25T04:29:59.902Z,99.99
2019-04-25T04:30:58.853Z,99.99
2019-04-25T04:31:58.899Z,99.99
2019-04-25T04:32:58.773Z,99.99
2019-04-25T04:33:58.799Z,99.99
2019-04-25T04:34:58.730Z,99.99
2019-04-25T04:35:58.820Z,99.99
2019-04-25T04:36:58.676Z,99.99
2019-04-25T04:37:58.732Z,99.99
2019-04-25T04:38:58.623Z,99.99
2019-04-25T04:39:58.659Z,99.99
2019-04-25T04:40:58.585Z,99.99
2019-04-25T04:41:58.653Z,99.99
2019-04-25T04:42:58.574Z,99.99
2019-04-25T04:43:58.603Z,99.99
2019-04-25T04:44:58.491Z,99.99
2019-04-25T04:45:58.575Z,99.99
2019-04-25T04:46:58.447Z,99.99
2019-04-25T04:47:58.494Z,99.99
2019-04-25T04:48:58.385Z,99.99
2019-04-25T04:49:58.418Z,99.99
2019-04-25T04:50:58.333Z,99.99
2019-04-25T04:51:58.409Z,99.99
2019-04-25T04:52:58.282Z,99.99
2019-04-25T04:53:58.422Z,99.99
2019-04-25T04:55:06.329Z,99.99
2019-04-25T04:55:58.347Z,99.99
2019-04-25T04:56:58.204Z,99.99
2019-04-25T04:57:58.259Z,99.99
2019-04-25T04:58:58.126Z,99.99
2019-04-25T04:59:58.171Z,99.99
2019-04-25T05:00:58.125Z,99.99
2019-04-25T05:01:58.212Z,99.99
2019-04-25T05:02:58.057Z,99.99
2019-04-25T05:03:58.108Z,99.99
2019-04-25T05:04:57.994Z,99.99
2019-04-25T05:05:58.119Z,99.99
2019-04-25T05:06:57.951Z,99.99
2019-04-25T05:07:58.020Z,99.99
2019-04-25T05:08:57.886Z,99.99
2019-04-25T05:09:58.030Z,99.99
2019-04-25T05:10:57.834Z,99.99
2019-04-25T05:30:07.249Z,99.99
2019-04-25T05:31:05.549Z,99.99
2019-04-25T05:32:05.308Z,99.99
2019-04-25T05:33:05.325Z,99.99
2019-04-25T05:34:05.286Z,99.99
2019-04-25T05:35:05.234Z,99.99
2019-04-25T05:36:05.953Z,99.99
2019-04-25T05:37:05.253Z,99.99
2019-04-25T05:38:05.159Z,99.99
2019-04-25T05:39:05.138Z,99.99
2019-04-25T05:40:05.644Z,99.99
2019-04-25T05:41:05.110Z,99.99
2019-04-25T05:42:07.467Z,99.99
2019-04-25T05:43:05.121Z,99.99
2019-04-25T05:44:05.019Z,99.99
2019-04-25T05:45:04.991Z,99.99
2019-04-25T05:46:05.130Z,99.99
2019-04-25T05:47:04.955Z,99.99
2019-04-25T05:48:06.077Z,99.99
2019-04-25T05:49:05.229Z,99.99
2019-04-25T05:50:04.867Z,99.99
2019-04-25T05:51:04.866Z,99.99
2019-04-25T05:52:04.954Z,99.99
2019-04-25T05:53:04.808Z,99.99
2019-04-25T05:54:04.793Z,99.99
2019-04-25T05:55:04.885Z,99.99
2019-04-25T05:56:04.734Z,99.99
2019-04-25T05:57:04.707Z,99.99
2019-04-25T05:58:04.775Z,99.99
2019-04-25T05:59:05.441Z,99.99
2019-04-25T06:00:04.666Z,99.99
2019-04-25T06:01:04.618Z,99.99
2019-04-25T06:02:04.597Z,99.99
2019-04-25T06:03:04.627Z,99.99
2019-04-25T06:04:05.464Z,99.99
2019-04-25T06:05:04.517Z,99.99
2019-04-25T06:06:04.514Z,99.99
2019-04-25T06:07:05.695Z,99.99
2019-04-25T06:08:04.548Z,99.99
2019-04-25T06:09:04.416Z,99.99
2019-04-25T06:10:04.466Z,99.99
2019-04-25T06:11:04.422Z,99.99
2019-04-25T06:12:04.767Z,99.99
2019-04-25T06:13:04.368Z,99.99
2019-04-25T06:14:04.297Z,99.99
2019-04-25T06:15:04.279Z,99.99
2019-04-25T06:16:04.254Z,99.99
2019-04-25T06:17:04.308Z,99.99
2019-04-25T06:18:04.186Z,99.99
2019-04-25T06:19:13.252Z,99.99
2019-04-25T06:20:06.119Z,99.99
2019-04-25T06:21:04.209Z,99.99
2019-04-25T06:22:04.094Z,99.99
2019-04-25T06:23:04.113Z,99.99
2019-04-25T06:24:04.334Z,99.99
2019-04-25T06:25:07.980Z,99.99
2019-04-25T06:26:17.094Z,99.99
2019-04-25T06:27:03.972Z,99.99
2019-04-25T06:28:04.043Z,99.99
2019-04-25T06:29:03.917Z,99.99
2019-04-25T06:30:04.342Z,99.99
2019-04-25T06:31:05.248Z,99.99
2019-04-25T06:32:08.289Z,99.99
2019-04-25T06:33:03.831Z,99.99
2019-04-25T06:34:04.592Z,99.99
2019-04-25T06:35:04.173Z,99.99
2019-04-25T06:36:04.184Z,99.99
2019-04-25T06:37:04.800Z,99.99
2019-04-25T06:38:03.696Z,99.99
2019-04-25T06:39:04.108Z,99.99
2019-04-25T06:40:05.057Z,99.99
2019-04-25T06:41:03.656Z,99.99
2019-04-25T06:42:03.994Z,99.99
2019-04-25T06:43:03.560Z,99.99
2019-04-25T06:44:04.046Z,99.99
2019-04-25T06:45:03.644Z,99.99
2019-04-25T06:46:03.905Z,99.99
2019-04-25T06:47:03.495Z,99.99
2019-04-25T06:48:03.992Z,99.99
2019-04-25T06:49:03.577Z,99.99
2019-04-25T06:50:04.272Z,99.99
2019-04-25T06:51:03.609Z,99.99
2019-04-25T06:52:04.174Z,99.99
2019-04-25T06:53:03.453Z,99.99
2019-04-25T06:54:03.465Z,99.99
2019-04-25T06:55:03.457Z,99.99
2019-04-25T06:56:03.548Z,99.99
2019-04-25T06:57:04.503Z,99.99
2019-04-25T06:58:10.121Z,99.99
2019-04-25T06:59:03.470Z,99.99
2019-04-25T07:00:04.487Z,99.99
2019-04-25T07:01:03.444Z,99.99
2019-04-25T07:02:04.223Z,99.99
2019-04-25T07:03:04.271Z,99.99
2019-04-25T07:04:04.050Z,99.99
2019-04-25T07:05:03.960Z,99.99
2019-04-25T07:06:03.335Z,99.99
2019-04-25T07:07:10.598Z,99.99
2019-04-25T07:08:03.315Z,99.99
2019-04-25T07:09:03.122Z,99.99
2019-04-25T07:10:03.642Z,99.99
2019-04-25T07:11:03.889Z,99.99
2019-04-25T07:12:03.560Z,99.99
2019-04-25T07:13:04.288Z,99.99
2019-04-25T07:14:04.178Z,99.99
2019-04-25T07:15:03.917Z,99.99
2019-04-25T07:16:03.051Z,99.99
2019-04-25T07:17:04.211Z,99.99
2019-04-25T07:18:03.790Z,99.99
2019-04-25T07:19:04.429Z,99.99
2019-04-25T07:20:03.914Z,99.99
2019-04-25T07:21:03.350Z,99.99
2019-04-25T07:22:03.929Z,99.99
2019-04-25T07:23:03.702Z,99.99
2019-04-25T07:24:04.094Z,99.99
2019-04-25T07:25:03.656Z,99.99
2019-04-25T07:26:03.723Z,99.99
2019-04-25T07:27:03.767Z,99.99
2019-04-25T07:28:03.383Z,99.99
2019-04-25T07:29:03.337Z,99.99
2019-04-25T07:30:04.017Z,99.77
2019-04-25T07:31:03.595Z,97.56
2019-04-25T07:32:03.915Z,98.05
2019-04-25T07:33:03.792Z,94.69
2019-04-25T07:34:03.376Z,95.17
2019-04-25T07:35:03.647Z,96.80
2019-04-25T07:36:04.128Z,93.74
2019-04-25T07:37:03.446Z,92.58
2019-04-25T07:38:03.923Z,93.64
2019-04-25T07:39:09.701Z,92.97
2019-04-25T07:40:02.184Z,93.54
2019-04-25T07:41:03.562Z,93.74
2019-04-25T07:42:02.115Z,93.26
2019-04-25T07:43:03.234Z,95.56
2019-04-25T07:44:02.048Z,93.35
2019-04-25T07:45:04.215Z,91.44
2019-04-25T07:46:03.376Z,92.49
2019-04-25T07:47:01.981Z,89.52
2019-04-25T07:48:02.035Z,90.86
2019-04-25T07:49:03.375Z,88.85
2019-04-25T07:50:02.064Z,88.66
2019-04-25T07:51:03.617Z,87.80
2019-04-25T07:52:03.477Z,88.18
2019-04-25T07:53:01.819Z,88.85
2019-04-25T07:54:01.863Z,88.18
2019-04-25T07:55:01.821Z,88.56
2019-04-25T07:56:01.858Z,89.04
2019-04-25T07:57:03.227Z,85.16
2019-04-25T07:58:03.130Z,86.88
2019-04-25T07:59:03.821Z,86.98
2019-04-25T08:00:03.243Z,85.74
2019-04-25T08:01:01.698Z,85.49
2019-04-25T08:02:03.295Z,85.30
2019-04-25T08:03:04.089Z,83.48
2019-04-25T08:04:01.568Z,81.27
2019-04-25T08:05:01.542Z,80.99
2019-04-25T08:06:03.086Z,79.55
2019-04-25T08:07:01.546Z,79.36
2019-04-25T08:08:03.509Z,80.41
2019-04-25T08:09:01.439Z,80.89
2019-04-25T08:10:01.405Z,82.90
2019-04-25T08:11:03.951Z,80.22
2019-04-25T08:12:01.353Z,79.55
2019-04-25T08:13:01.362Z,79.36
2019-04-25T08:14:01.335Z,78.49
2019-04-25T08:15:01.393Z,77.73
2019-04-25T08:16:01.281Z,77.73
2019-04-25T08:17:03.690Z,77.53
2019-04-25T08:18:01.227Z,78.78
2019-04-25T08:19:01.199Z,79.45
2019-04-25T08:20:01.318Z,81.02
2019-04-25T08:21:01.236Z,80.74
2019-04-25T08:22:01.225Z,78.15
2019-04-25T08:23:01.120Z,75.85
2019-04-25T08:24:01.067Z,77.19
2019-04-25T08:25:01.030Z,78.92
2019-04-25T08:26:00.998Z,77.95
2019-04-25T08:27:00.982Z,76.32
2019-04-25T08:28:00.979Z,76.23
2019-04-25T08:29:00.940Z,76.52
2019-04-25T08:30:00.975Z,77.58
2019-04-25T08:31:00.914Z,77.48
2019-04-25T08:32:00.988Z,77.67
2019-04-25T08:33:00.886Z,76.81
2019-04-25T08:34:00.937Z,75.08
2019-04-25T08:35:00.957Z,74.41
2019-04-25T08:36:06.657Z,74.12
2019-04-25T08:37:00.756Z,75.12
2019-04-25T08:38:00.721Z,76.46
2019-04-25T08:39:00.729Z,77.42
2019-04-25T08:40:00.716Z,75.89
2019-04-25T08:41:00.730Z,75.31
2019-04-25T08:42:00.628Z,73.97
2019-04-25T08:43:00.598Z,73.68
2019-04-25T08:44:00.566Z,73.14
2019-04-25T08:45:00.668Z,72.18
2019-04-25T08:46:00.524Z,71.51
2019-04-25T08:47:00.506Z,72.43
2019-04-25T08:48:00.520Z,70.23
2019-04-25T08:49:02.187Z,71.47
2019-04-25T08:50:00.428Z,70.23
2019-04-25T08:51:00.415Z,71.37
2019-04-25T08:52:00.373Z,70.99
2019-04-25T08:53:00.380Z,70.80
2019-04-25T08:54:00.329Z,71.19
2019-04-25T08:55:00.310Z,71.19
2019-04-25T08:56:00.298Z,70.23
2019-04-25T08:57:00.343Z,71.22
2019-04-25T08:58:00.263Z,70.17
2019-04-25T08:59:04.168Z,71.03
2019-04-25T09:00:00.192Z,71.89
2019-04-25T09:01:01.378Z,71.55
2019-04-25T09:02:00.141Z,70.29
2019-04-25T09:03:01.264Z,70.87
2019-04-25T09:04:03.047Z,71.16
2019-04-25T09:05:00.141Z,72.47
2019-04-25T09:06:00.207Z,70.84
2019-04-25T09:07:01.076Z,69.78
2019-04-25T09:07:59.980Z,69.59
2019-04-25T09:09:15.827Z,69.72
2019-04-25T09:09:59.955Z,69.11
2019-04-25T09:11:07.860Z,69.01
2019-04-25T09:11:59.898Z,69.30
2019-04-25T09:13:28.861Z,70.26
2019-04-25T09:13:59.851Z,71.06
2019-04-25T09:15:24.119Z,70.78
2019-04-25T09:15:59.848Z,71.25
2019-04-25T09:16:59.799Z,69.91
2019-04-25T09:17:59.744Z,69.14
2019-04-25T09:18:59.866Z,68.66
2019-04-25T09:19:59.779Z,68.76
2019-04-25T09:21:59.643Z,68.57
2019-04-25T09:23:59.605Z,67.13
2019-04-25T09:25:07.328Z,68.08
2019-04-25T09:25:59.621Z,67.99
2019-04-25T09:27:00.597Z,67.70
2019-04-25T09:27:59.503Z,68.57
2019-04-25T09:29:15.746Z,69.62
2019-04-25T09:29:59.433Z,69.72
2019-04-25T09:31:00.532Z,68.57
2019-04-25T09:31:59.401Z,68.76
2019-04-25T09:33:20.386Z,67.80
2019-04-25T09:33:59.366Z,67.90
2019-04-25T09:35:07.443Z,67.96
2019-04-25T09:35:59.291Z,68.82
2019-04-25T09:37:07.848Z,69.24
2019-04-25T09:37:59.247Z,68.76
2019-04-25T09:39:07.870Z,68.66
2019-04-25T09:39:59.195Z,68.12
2019-04-25T09:40:59.279Z,68.21
2019-04-25T09:41:59.145Z,67.64
2019-04-25T09:43:20.180Z,67.64
2019-04-25T09:43:59.114Z,67.58
2019-04-25T09:44:59.073Z,67.38
2019-04-25T09:45:59.132Z,65.56
2019-04-25T09:46:59.072Z,64.76
2019-04-25T09:48:23.250Z,65.53
2019-04-25T09:48:58.983Z,65.66
2019-04-25T09:49:59.043Z,66.91
2019-04-25T09:50:58.930Z,65.94
2019-04-25T09:52:19.967Z,66.04
2019-04-25T09:52:58.878Z,65.46
2019-04-25T09:53:58.897Z,66.71
2019-04-25T09:55:19.841Z,67.93
2019-04-25T09:55:58.842Z,66.97
2019-04-25T09:56:58.870Z,67.32
2019-04-25T09:57:58.773Z,67.70
2019-04-25T09:59:05.331Z,68.18
2019-04-25T09:59:58.724Z,68.66
2019-04-25T10:01:13.891Z,69.72
2019-04-25T10:01:58.675Z,69.34
2019-04-25T10:03:13.579Z,70.01
2019-04-25T10:03:58.626Z,70.23
2019-04-25T10:05:07.421Z,70.72
2019-04-25T10:05:58.566Z,70.04
2019-04-25T10:07:58.525Z,68.15
2019-04-25T10:09:20.565Z,68.06
2019-04-25T10:09:58.490Z,67.86
2019-04-25T10:11:19.556Z,67.58
2019-04-25T10:11:58.417Z,66.71
2019-04-25T10:13:07.404Z,65.84
2019-04-25T10:13:58.367Z,66.61
2019-04-25T10:15:07.420Z,66.42
2019-04-25T10:15:58.326Z,66.20
2019-04-25T10:17:14.057Z,67.48
2019-04-25T10:17:58.341Z,68.12
2019-04-25T10:19:25.843Z,68.35
2019-04-25T10:19:58.237Z,68.15
2019-04-25T10:20:58.273Z,67.64
2019-04-25T10:21:58.163Z,67.93
2019-04-25T10:22:59.239Z,68.31
2019-04-25T10:23:58.127Z,68.79
2019-04-25T10:25:00.632Z,68.95
2019-04-25T10:25:58.125Z,69.43
2019-04-25T10:26:58.204Z,70.20
2019-04-25T10:27:58.036Z,71.45
2019-04-25T10:29:04.862Z,71.16
2019-04-25T10:29:58.044Z,70.29
2019-04-25T10:30:58.025Z,70.49
2019-04-25T10:31:57.986Z,71.22
2019-04-25T10:33:04.911Z,71.16
2019-04-25T10:33:57.985Z,70.97
2019-04-25T10:34:57.952Z,72.02
2019-04-25T10:35:59.384Z,71.25
2019-04-25T10:36:57.881Z,70.20
2019-04-25T10:37:57.791Z,69.62
2019-04-25T10:39:07.243Z,69.56
2019-04-25T10:39:57.759Z,68.98
2019-04-25T10:40:57.814Z,68.51
2019-04-25T10:41:57.707Z,68.60
2019-04-25T10:42:57.682Z,67.83
2019-04-25T10:43:57.711Z,67.86
2019-04-25T10:44:57.625Z,66.91
2019-04-25T10:46:05.281Z,68.15
2019-04-25T10:46:57.592Z,67.99
2019-04-25T10:47:59.592Z,67.13
2019-04-25T10:48:57.525Z,65.88
2019-04-25T10:49:59.101Z,65.88
2019-04-25T10:50:57.671Z,65.63
2019-04-25T10:51:57.517Z,64.82
2019-04-25T10:53:57.402Z,64.76
2019-04-25T10:55:57.348Z,63.99
2019-04-25T10:56:58.426Z,64.56
2019-04-25T10:57:57.299Z,65.24
2019-04-25T10:59:24.862Z,66.33
2019-04-25T11:00:06.234Z,67.19
2019-04-25T11:00:57.232Z,64.43
2019-04-25T11:01:57.264Z,63.67
2019-04-25T11:02:57.195Z,62.51
2019-04-25T11:04:04.922Z,63.57
2019-04-25T11:04:57.135Z,65.11
2019-04-25T11:05:57.103Z,64.92
2019-04-25T11:07:57.070Z,65.50
2019-04-25T11:09:20.832Z,63.38
2019-04-25T11:09:57.016Z,64.34
2019-04-25T11:10:57.003Z,62.77
2019-04-25T11:11:59.040Z,64.50
2019-04-25T11:12:56.950Z,63.73
2019-04-25T11:14:56.886Z,63.54
2019-04-25T11:15:57.118Z,63.54
2019-04-25T11:16:56.898Z,63.73
2019-04-25T11:17:56.820Z,64.02
2019-04-25T11:18:56.819Z,62.77
2019-04-25T11:19:56.765Z,62.77
2019-04-25T11:20:57.866Z,62.00
2019-04-25T11:21:56.728Z,62.12
2019-04-25T11:23:56.679Z,59.75
2019-04-25T11:24:56.774Z,58.40
2019-04-25T11:25:56.634Z,57.14
2019-04-25T11:26:56.708Z,57.17
2019-04-25T11:27:56.574Z,57.17
2019-04-25T11:28:56.624Z,57.39
2019-04-25T11:30:08.555Z,56.14
2019-04-25T11:30:56.995Z,56.81
2019-04-25T11:31:56.456Z,56.72
2019-04-25T11:32:58.544Z,56.94
2019-04-25T11:33:56.414Z,55.78
2019-04-25T11:35:03.577Z,54.60
2019-04-25T11:35:56.534Z,54.79
2019-04-25T11:36:57.700Z,54.33
2019-04-25T11:37:56.921Z,53.95
2019-04-25T11:38:58.394Z,54.72
2019-04-25T11:39:56.289Z,53.83
2019-04-25T11:40:56.414Z,54.05
2019-04-25T11:41:56.261Z,54.69
2019-04-25T11:42:56.217Z,54.72
2019-04-25T11:44:03.469Z,54.43
2019-04-25T11:44:56.184Z,52.89
2019-04-25T11:45:57.120Z,51.73
2019-04-25T11:46:57.238Z,52.59
2019-04-25T11:47:56.107Z,52.79
2019-04-25T11:48:56.060Z,51.63
2019-04-25T11:49:56.110Z,49.99
2019-04-25T11:50:56.015Z,51.53
2019-04-25T11:51:57.079Z,50.67
2019-04-25T11:52:56.303Z,51.82
2019-04-25T11:53:55.976Z,52.01
2019-04-25T11:54:55.933Z,50.28
2019-04-25T11:55:55.898Z,48.44
2019-04-25T11:56:56.477Z,49.51
2019-04-25T11:57:55.898Z,49.32
2019-04-25T11:58:55.836Z,49.19
2019-04-25T11:59:55.875Z,50.64
2019-04-25T12:00:58.086Z,50.23
2019-04-25T12:01:57.312Z,49.94
2019-04-25T12:02:56.856Z,50.52
2019-04-25T12:03:56.134Z,50.52
2019-04-25T12:05:16.409Z,50.23
2019-04-25T12:06:16.223Z,50.71
2019-04-25T12:12:03.556Z,51.10
2019-04-25T12:13:19.813Z,50.42
2019-04-25T12:14:04.320Z,51.00
2019-04-25T12:15:05.024Z,51.00
2019-04-25T12:16:04.138Z,51.58
2019-04-25T12:17:03.760Z,51.68
2019-04-25T12:18:04.574Z,51.68
2019-04-25T12:19:04.813Z,52.64
2019-04-25T12:20:03.872Z,51.97
2019-04-25T12:35:30.206Z,54.86
2019-04-25T12:36:30.172Z,53.70
2019-04-25T12:37:30.167Z,53.70
2019-04-25T12:38:30.117Z,54.50
2019-04-25T12:39:30.105Z,55.27
2019-04-25T12:40:30.081Z,55.01
2019-04-25T12:41:30.125Z,54.33
2019-04-25T12:42:30.048Z,53.01
2019-04-25T12:43:30.033Z,52.53
2019-04-25T12:44:30.081Z,53.01
2019-04-25T12:45:30.054Z,51.46
2019-04-25T12:46:29.929Z,50.01
2019-04-25T12:47:30.996Z,49.53
2019-04-25T12:48:29.878Z,50.59
2019-04-25T12:49:29.866Z,51.95
2019-04-25T12:50:29.828Z,51.49
2019-04-25T12:51:29.883Z,51.10
2019-04-25T12:52:29.799Z,50.59
2019-04-25T12:53:29.766Z,50.21
2019-04-25T12:54:29.752Z,49.05
2019-04-25T12:55:29.743Z,49.51
2019-04-25T12:56:29.860Z,50.96
2019-04-25T12:57:29.719Z,49.51
2019-04-25T12:58:29.757Z,49.96
2019-04-25T12:59:29.642Z,51.99
2019-04-25T13:00:30.713Z,52.40
2019-04-25T13:01:29.610Z,51.63
2019-04-25T13:02:29.686Z,51.73
2019-04-25T13:03:29.574Z,51.92
2019-04-25T13:04:30.636Z,50.69
2019-04-25T13:05:29.523Z,50.59
2019-04-25T13:06:36.390Z,50.50
2019-04-25T13:07:29.552Z,49.75
2019-04-25T13:08:29.447Z,48.01
2019-04-25T13:09:29.446Z,48.11
2019-04-25T13:10:29.430Z,48.21
2019-04-25T13:11:29.401Z,48.01
2019-04-25T13:12:29.386Z,47.63
2019-04-25T13:13:29.365Z,48.18
2019-04-25T13:14:29.326Z,48.21
2019-04-25T13:15:29.315Z,48.49
2019-04-25T13:16:29.284Z,48.21
2019-04-25T13:17:29.241Z,47.05
2019-04-25T13:18:29.244Z,48.21
2019-04-25T13:19:29.220Z,49.95
2019-04-25T13:20:29.151Z,48.49
2019-04-25T13:21:29.184Z,48.30
2019-04-25T13:22:29.231Z,48.69
2019-04-25T13:23:31.837Z,48.11
2019-04-25T13:24:29.071Z,48.11
2019-04-25T13:25:29.073Z,48.01
2019-04-25T13:26:29.029Z,48.11
2019-04-25T13:27:29.026Z,47.07
2019-04-25T13:28:28.987Z,46.56
2019-04-25T13:29:30.059Z,48.11
2019-04-25T13:30:28.939Z,47.24
2019-04-25T13:31:28.946Z,47.14
2019-04-25T13:32:28.911Z,47.05
2019-04-25T13:33:30.296Z,47.14
2019-04-25T13:34:36.332Z,45.91
2019-04-25T13:35:28.832Z,46.00
2019-04-25T13:36:28.783Z,46.49
2019-04-25T13:37:28.826Z,46.56
2019-04-25T13:38:28.747Z,47.14